sensor_id;sensor_type;location;lat;lon;timestamp;pressure;altitude;pressure_sealevel;temperature;humidity
36748;BME280;22716;51.556;5.080;2022-10-19T00:02:25;102692.97;;;11.47;100.00
36748;BME280;22716;51.556;5.080;2022-10-19T00:04:54;102691.19;;;11.44;100.00
36748;BME280;22716;51.556;5.080;2022-10-19T00:07:24;102697.16;;;11.34;100.00
36748;BME280;22716;51.556;5.080;2022-10-19T00:09:53;102688.28;;;11.26;100.00
36748;BME280;22716;51.556;5.080;2022-10-19T00:12:22;102685.56;;;11.21;100.00
36748;BME280;22716;51.556;5.080;2022-10-19T00:14:53;102687.50;;;11.32;100.00
36748;BME280;22716;51.556;5.080;2022-10-19T00:17:22;102692.78;;;11.36;100.00
36748;BME280;22716;51.556;5.080;2022-10-19T00:19:52;102684.06;;;11.36;100.00
36748;BME280;22716;51.556;5.080;2022-10-19T00:22:21;102674.31;;;11.29;100.00
36748;BME280;22716;51.556;5.080;2022-10-19T00:24:50;102671.69;;;11.27;100.00
36748;BME280;22716;51.556;5.080;2022-10-19T00:27:19;102664.56;;;11.20;100.00
36748;BME280;22716;51.556;5.080;2022-10-19T00:29:48;102668.03;;;11.19;100.00
36748;BME280;22716;51.556;5.080;2022-10-19T00:32:20;102669.81;;;11.20;100.00
36748;BME280;22716;51.556;5.080;2022-10-19T00:34:49;102674.06;;;11.13;100.00
36748;BME280;22716;51.556;5.080;2022-10-19T00:37:18;102675.75;;;11.08;100.00
36748;BME280;22716;51.556;5.080;2022-10-19T00:39:47;102674.91;;;11.09;100.00
36748;BME280;22716;51.556;5.080;2022-10-19T00:42:20;102682.81;;;11.14;100.00
36748;BME280;22716;51.556;5.080;2022-10-19T00:45:06;102674.03;;;11.10;100.00
36748;BME280;22716;51.556;5.080;2022-10-19T00:47:44;102682.63;;;11.02;100.00
36748;BME280;22716;51.556;5.080;2022-10-19T00:50:35;102686.97;;;11.01;100.00
36748;BME280;22716;51.556;5.080;2022-10-19T00:53:05;102676.47;;;11.00;100.00
36748;BME280;22716;51.556;5.080;2022-10-19T00:55:36;102677.38;;;11.00;100.00
36748;BME280;22716;51.556;5.080;2022-10-19T00:58:09;102668.50;;;10.95;100.00
36748;BME280;22716;51.556;5.080;2022-10-19T01:00:38;102677.28;;;10.96;100.00
36748;BME280;22716;51.556;5.080;2022-10-19T01:03:11;102681.72;;;11.00;100.00
36748;BME280;22716;51.556;5.080;2022-10-19T01:05:45;102678.09;;;10.92;100.00
36748;BME280;22716;51.556;5.080;2022-10-19T01:08:15;102682.47;;;10.93;100.00
36748;BME280;22716;51.556;5.080;2022-10-19T01:10:55;102684.19;;;10.91;100.00
36748;BME280;22716;51.556;5.080;2022-10-19T01:13:37;102679.78;;;10.88;100.00
36748;BME280;22716;51.556;5.080;2022-10-19T01:16:35;102666.56;;;10.84;100.00
36748;BME280;22716;51.556;5.080;2022-10-19T01:19:35;102664.00;;;10.87;100.00
36748;BME280;22716;51.556;5.080;2022-10-19T01:22:23;102671.13;;;10.94;100.00
36748;BME280;22716;51.556;5.080;2022-10-19T01:24:59;102667.50;;;10.86;100.00
36748;BME280;22716;51.556;5.080;2022-10-19T01:27:59;102667.41;;;10.81;100.00
36748;BME280;22716;51.556;5.080;2022-10-19T01:31:01;102679.44;;;10.72;100.00
36748;BME280;22716;51.556;5.080;2022-10-19T01:33:53;102677.66;;;10.69;100.00
36748;BME280;22716;51.556;5.080;2022-10-19T01:36:36;102676.84;;;10.72;100.00
36748;BME280;22716;51.556;5.080;2022-10-19T01:39:11;102677.81;;;10.77;100.00
36748;BME280;22716;51.556;5.080;2022-10-19T01:41:51;102675.09;;;10.72;100.00
36748;BME280;22716;51.556;5.080;2022-10-19T01:44:27;102673.19;;;10.63;100.00
36748;BME280;22716;51.556;5.080;2022-10-19T01:47:09;102671.47;;;10.62;100.00
36748;BME280;22716;51.556;5.080;2022-10-19T01:49:48;102660.91;;;10.59;100.00
36748;BME280;22716;51.556;5.080;2022-10-19T01:52:43;102665.16;;;10.53;100.00
36748;BME280;22716;51.556;5.080;2022-10-19T01:55:30;102661.56;;;10.48;100.00
36748;BME280;22716;51.556;5.080;2022-10-19T01:58:08;102655.44;;;10.47;100.00
36748;BME280;22716;51.556;5.080;2022-10-19T02:00:42;102651.88;;;10.45;100.00
36748;BME280;22716;51.556;5.080;2022-10-19T02:03:24;102644.84;;;10.41;100.00
36748;BME280;22716;51.556;5.080;2022-10-19T02:05:55;102639.59;;;10.41;100.00
36748;BME280;22716;51.556;5.080;2022-10-19T02:08:45;102645.72;;;10.42;100.00
36748;BME280;22716;51.556;5.080;2022-10-19T02:11:17;102638.72;;;10.41;100.00
36748;BME280;22716;51.556;5.080;2022-10-19T02:13:50;102643.00;;;10.37;100.00
36748;BME280;22716;51.556;5.080;2022-10-19T02:16:23;102637.75;;;10.36;100.00
36748;BME280;22716;51.556;5.080;2022-10-19T02:19:03;102633.34;;;10.33;100.00
36748;BME280;22716;51.556;5.080;2022-10-19T02:21:34;102630.66;;;10.30;100.00
36748;BME280;22716;51.556;5.080;2022-10-19T02:24:05;102620.97;;;10.26;100.00
36748;BME280;22716;51.556;5.080;2022-10-19T02:26:34;102615.72;;;10.26;100.00
36748;BME280;22716;51.556;5.080;2022-10-19T02:29:07;102607.94;;;10.29;100.00
36748;BME280;22716;51.556;5.080;2022-10-19T02:31:37;102602.75;;;10.32;100.00
36748;BME280;22716;51.556;5.080;2022-10-19T02:34:11;102603.69;;;10.36;100.00
36748;BME280;22716;51.556;5.080;2022-10-19T02:36:41;102608.00;;;10.32;100.00
36748;BME280;22716;51.556;5.080;2022-10-19T02:39:10;102614.94;;;10.30;100.00
36748;BME280;22716;51.556;5.080;2022-10-19T02:41:43;102611.34;;;10.25;100.00
36748;BME280;22716;51.556;5.080;2022-10-19T02:44:28;102621.75;;;10.22;100.00
36748;BME280;22716;51.556;5.080;2022-10-19T02:47:06;102610.31;;;10.17;100.00
36748;BME280;22716;51.556;5.080;2022-10-19T02:49:41;102625.19;;;10.18;100.00
36748;BME280;22716;51.556;5.080;2022-10-19T02:52:12;102618.94;;;10.13;100.00
36748;BME280;22716;51.556;5.080;2022-10-19T02:55:01;102611.09;;;10.13;100.00
36748;BME280;22716;51.556;5.080;2022-10-19T02:57:31;102611.19;;;10.18;100.00
36748;BME280;22716;51.556;5.080;2022-10-19T02:59:59;102606.81;;;10.17;100.00
36748;BME280;22716;51.556;5.080;2022-10-19T03:02:33;102597.84;;;10.07;100.00
36748;BME280;22716;51.556;5.080;2022-10-19T03:05:07;102607.75;;;10.20;100.00
36748;BME280;22716;51.556;5.080;2022-10-19T03:07:36;102611.16;;;10.16;100.00
36748;BME280;22716;51.556;5.080;2022-10-19T03:10:27;102615.44;;;10.12;100.00
36748;BME280;22716;51.556;5.080;2022-10-19T03:12:58;102621.47;;;10.10;100.00
36748;BME280;22716;51.556;5.080;2022-10-19T03:15:28;102617.13;;;10.10;100.00
36748;BME280;22716;51.556;5.080;2022-10-19T03:17:57;102614.50;;;10.10;100.00
36748;BME280;22716;51.556;5.080;2022-10-19T03:20:28;102610.09;;;10.08;100.00
36748;BME280;22716;51.556;5.080;2022-10-19T03:22:58;102597.91;;;10.10;100.00
36748;BME280;22716;51.556;5.080;2022-10-19T03:25:26;102611.00;;;10.10;100.00
36748;BME280;22716;51.556;5.080;2022-10-19T03:27:56;102604.78;;;10.03;100.00
36748;BME280;22716;51.556;5.080;2022-10-19T03:30:25;102602.06;;;9.99;100.00
36748;BME280;22716;51.556;5.080;2022-10-19T03:32:54;102597.69;;;9.98;100.00
36748;BME280;22716;51.556;5.080;2022-10-19T03:35:23;102596.75;;;9.94;100.00
36748;BME280;22716;51.556;5.080;2022-10-19T03:37:55;102590.63;;;9.94;100.00
36748;BME280;22716;51.556;5.080;2022-10-19T03:40:24;102599.31;;;9.93;100.00
36748;BME280;22716;51.556;5.080;2022-10-19T03:42:52;102591.38;;;9.88;100.00
36748;BME280;22716;51.556;5.080;2022-10-19T03:45:22;102596.69;;;9.91;100.00
36748;BME280;22716;51.556;5.080;2022-10-19T03:47:51;102595.69;;;9.86;100.00
36748;BME280;22716;51.556;5.080;2022-10-19T03:50:20;102600.91;;;9.86;100.00
36748;BME280;22716;51.556;5.080;2022-10-19T03:52:49;102586.81;;;9.78;100.00
36748;BME280;22716;51.556;5.080;2022-10-19T03:55:21;102600.91;;;9.85;100.00
36748;BME280;22716;51.556;5.080;2022-10-19T03:57:50;102592.91;;;9.77;100.00
36748;BME280;22716;51.556;5.080;2022-10-19T04:00:20;102601.78;;;9.85;100.00
36748;BME280;22716;51.556;5.080;2022-10-19T04:02:49;102591.09;;;9.75;100.00
36748;BME280;22716;51.556;5.080;2022-10-19T04:05:18;102584.94;;;9.71;100.00
36748;BME280;22716;51.556;5.080;2022-10-19T04:07:47;102604.28;;;9.79;100.00
36748;BME280;22716;51.556;5.080;2022-10-19T04:10:16;102599.81;;;9.74;100.00
36748;BME280;22716;51.556;5.080;2022-10-19T04:12:48;102604.03;;;9.67;100.00
36748;BME280;22716;51.556;5.080;2022-10-19T04:15:37;102590.94;;;9.66;100.00
36748;BME280;22716;51.556;5.080;2022-10-19T04:18:06;102584.03;;;9.71;100.00
36748;BME280;22716;51.556;5.080;2022-10-19T04:20:35;102583.22;;;9.73;100.00
36748;BME280;22716;51.556;5.080;2022-10-19T04:23:07;102592.03;;;9.78;100.00
36748;BME280;22716;51.556;5.080;2022-10-19T04:25:36;102581.34;;;9.68;100.00
36748;BME280;22716;51.556;5.080;2022-10-19T04:28:08;102585.75;;;9.69;100.00
36748;BME280;22716;51.556;5.080;2022-10-19T04:30:37;102575.16;;;9.63;100.00
36748;BME280;22716;51.556;5.080;2022-10-19T04:33:06;102584.81;;;9.67;100.00
36748;BME280;22716;51.556;5.080;2022-10-19T04:35:37;102571.53;;;9.57;100.00
36748;BME280;22716;51.556;5.080;2022-10-19T04:38:06;102589.16;;;9.65;100.00
36748;BME280;22716;51.556;5.080;2022-10-19T04:40:36;102597.84;;;9.64;100.00
36748;BME280;22716;51.556;5.080;2022-10-19T04:43:08;102599.56;;;9.62;100.00
36748;BME280;22716;51.556;5.080;2022-10-19T04:45:37;102590.00;;;9.64;100.00
36748;BME280;22716;51.556;5.080;2022-10-19T04:48:06;102590.69;;;9.55;100.00
36748;BME280;22716;51.556;5.080;2022-10-19T04:50:35;102600.31;;;9.56;100.00
36748;BME280;22716;51.556;5.080;2022-10-19T04:53:04;102606.56;;;9.63;100.00
36748;BME280;22716;51.556;5.080;2022-10-19T04:55:33;102589.84;;;9.57;100.00
36748;BME280;22716;51.556;5.080;2022-10-19T04:58:10;102594.38;;;9.65;100.00
36748;BME280;22716;51.556;5.080;2022-10-19T05:00:39;102552.09;;;9.45;100.00
36748;BME280;22716;51.556;5.080;2022-10-19T05:03:09;102580.41;;;9.64;100.00
36748;BME280;22716;51.556;5.080;2022-10-19T05:05:38;102583.03;;;9.64;100.00
36748;BME280;22716;51.556;5.080;2022-10-19T05:08:07;102584.81;;;9.65;100.00
36748;BME280;22716;51.556;5.080;2022-10-19T05:10:37;102572.50;;;9.61;100.00
36748;BME280;22716;51.556;5.080;2022-10-19T05:13:06;102581.13;;;9.57;100.00
36748;BME280;22716;51.556;5.080;2022-10-19T05:15:38;102574.97;;;9.55;100.00
36748;BME280;22716;51.556;5.080;2022-10-19T05:18:07;102569.75;;;9.55;100.00
36748;BME280;22716;51.556;5.080;2022-10-19T05:20:36;102570.56;;;9.51;100.00
36748;BME280;22716;51.556;5.080;2022-10-19T05:23:11;102579.19;;;9.47;100.00
36748;BME280;22716;51.556;5.080;2022-10-19T05:25:39;102570.41;;;9.45;100.00
36748;BME280;22716;51.556;5.080;2022-10-19T05:28:08;102570.41;;;9.45;100.00
36748;BME280;22716;51.556;5.080;2022-10-19T05:33:48;102567.81;;;9.46;100.00
36748;BME280;22716;51.556;5.080;2022-10-19T05:36:19;102563.25;;;9.36;100.00
36748;BME280;22716;51.556;5.080;2022-10-19T05:38:56;102571.09;;;9.36;100.00
36748;BME280;22716;51.556;5.080;2022-10-19T05:41:29;102557.09;;;9.34;100.00
36748;BME280;22716;51.556;5.080;2022-10-19T05:43:59;102568.63;;;9.44;100.00
36748;BME280;22716;51.556;5.080;2022-10-19T05:46:33;102562.44;;;9.40;100.00
36748;BME280;22716;51.556;5.080;2022-10-19T05:49:02;102551.03;;;9.37;100.00
36748;BME280;22716;51.556;5.080;2022-10-19T05:51:34;102563.34;;;9.42;100.00
36748;BME280;22716;51.556;5.080;2022-10-19T05:54:04;102543.03;;;9.29;100.00
36748;BME280;22716;51.556;5.080;2022-10-19T05:56:53;102552.00;;;9.40;100.00
36748;BME280;22716;51.556;5.080;2022-10-19T05:59:23;102552.91;;;9.42;100.00
36748;BME280;22716;51.556;5.080;2022-10-19T06:02:11;102548.59;;;9.44;100.00
36748;BME280;22716;51.556;5.080;2022-10-19T06:04:40;102554.53;;;9.36;100.00
36748;BME280;22716;51.556;5.080;2022-10-19T06:07:09;102543.94;;;9.30;100.00
36748;BME280;22716;51.556;5.080;2022-10-19T06:09:38;102548.41;;;9.35;100.00
36748;BME280;22716;51.556;5.080;2022-10-19T06:12:07;102545.84;;;9.38;100.00
36748;BME280;22716;51.556;5.080;2022-10-19T06:14:36;102541.31;;;9.30;100.00
36748;BME280;22716;51.556;5.080;2022-10-19T06:17:08;102532.63;;;9.32;100.00
36748;BME280;22716;51.556;5.080;2022-10-19T06:19:38;102534.47;;;9.36;100.00
36748;BME280;22716;51.556;5.080;2022-10-19T06:22:07;102544.13;;;9.39;100.00
36748;BME280;22716;51.556;5.080;2022-10-19T06:24:35;102544.19;;;9.42;100.00
36748;BME280;22716;51.556;5.080;2022-10-19T06:27:05;102536.22;;;9.37;100.00
36748;BME280;22716;51.556;5.080;2022-10-19T06:29:35;102547.50;;;9.35;100.00
36748;BME280;22716;51.556;5.080;2022-10-19T06:32:04;102537.72;;;9.26;100.00
36748;BME280;22716;51.556;5.080;2022-10-19T06:34:36;102544.63;;;9.23;100.00
36748;BME280;22716;51.556;5.080;2022-10-19T06:37:04;102549.03;;;9.25;100.00
36748;BME280;22716;51.556;5.080;2022-10-19T06:39:43;102538.56;;;9.25;100.00
36748;BME280;22716;51.556;5.080;2022-10-19T06:42:12;102545.81;;;9.37;100.00
36748;BME280;22716;51.556;5.080;2022-10-19T06:44:41;102551.91;;;9.37;100.00
36748;BME280;22716;51.556;5.080;2022-10-19T06:47:10;102550.19;;;9.36;100.00
36748;BME280;22716;51.556;5.080;2022-10-19T06:49:42;102555.56;;;9.45;100.00
36748;BME280;22716;51.556;5.080;2022-10-19T06:52:11;102543.31;;;9.41;100.00
36748;BME280;22716;51.556;5.080;2022-10-19T06:54:40;102548.72;;;9.50;100.00
36748;BME280;22716;51.556;5.080;2022-10-19T06:57:09;102553.22;;;9.57;100.00
36748;BME280;22716;51.556;5.080;2022-10-19T06:59:38;102543.75;;;9.63;100.00
36748;BME280;22716;51.556;5.080;2022-10-19T07:02:09;102555.13;;;9.66;100.00
36748;BME280;22716;51.556;5.080;2022-10-19T07:04:38;102551.66;;;9.66;100.00
36748;BME280;22716;51.556;5.080;2022-10-19T07:07:10;102552.13;;;9.90;100.00
36748;BME280;22716;51.556;5.080;2022-10-19T07:09:40;102556.41;;;9.85;100.00
36748;BME280;22716;51.556;5.080;2022-10-19T07:12:08;102556.41;;;9.85;100.00
36748;BME280;22716;51.556;5.080;2022-10-19T07:14:38;102559.09;;;9.88;100.00
36748;BME280;22716;51.556;5.080;2022-10-19T07:17:10;102553.78;;;9.86;100.00
36748;BME280;22716;51.556;5.080;2022-10-19T07:19:39;102560.81;;;10.32;100.00
36748;BME280;22716;51.556;5.080;2022-10-19T07:22:12;102565.41;;;10.45;100.00
36748;BME280;22716;51.556;5.080;2022-10-19T07:24:45;102558.28;;;10.37;100.00
36748;BME280;22716;51.556;5.080;2022-10-19T07:27:13;102552.06;;;10.30;100.00
36748;BME280;22716;51.556;5.080;2022-10-19T07:29:42;102548.50;;;10.27;100.00
36748;BME280;22716;51.556;5.080;2022-10-19T07:32:11;102552.75;;;10.20;100.00
36748;BME280;22716;51.556;5.080;2022-10-19T07:34:40;102550.00;;;10.14;100.00
36748;BME280;22716;51.556;5.080;2022-10-19T07:37:13;102559.72;;;10.20;100.00
36748;BME280;22716;51.556;5.080;2022-10-19T07:39:42;102545.91;;;10.28;100.00
36748;BME280;22716;51.556;5.080;2022-10-19T07:42:11;102526.81;;;10.35;100.00
36748;BME280;22716;51.556;5.080;2022-10-19T07:44:40;102538.34;;;10.46;100.00
36748;BME280;22716;51.556;5.080;2022-10-19T07:47:09;102543.47;;;10.39;100.00
36748;BME280;22716;51.556;5.080;2022-10-19T07:49:38;102538.31;;;10.43;100.00
36748;BME280;22716;51.556;5.080;2022-10-19T07:52:07;102529.59;;;10.44;100.00
36748;BME280;22716;51.556;5.080;2022-10-19T07:54:39;102531.34;;;10.45;100.00
36748;BME280;22716;51.556;5.080;2022-10-19T07:57:10;102535.78;;;10.49;100.00
36748;BME280;22716;51.556;5.080;2022-10-19T07:59:40;102537.63;;;10.55;100.00
36748;BME280;22716;51.556;5.080;2022-10-19T08:02:25;102520.91;;;10.47;100.00
36748;BME280;22716;51.556;5.080;2022-10-19T08:04:54;102529.84;;;10.59;100.00
36748;BME280;22716;51.556;5.080;2022-10-19T08:07:23;102524.63;;;10.59;100.00
36748;BME280;22716;51.556;5.080;2022-10-19T08:09:55;102523.78;;;10.62;100.00
36748;BME280;22716;51.556;5.080;2022-10-19T08:12:24;102504.59;;;10.66;100.00
36748;BME280;22716;51.556;5.080;2022-10-19T08:14:53;102506.47;;;10.75;100.00
36748;BME280;22716;51.556;5.080;2022-10-19T08:17:22;102503.84;;;10.75;100.00
36748;BME280;22716;51.556;5.080;2022-10-19T08:19:51;102510.88;;;10.76;100.00
36748;BME280;22716;51.556;5.080;2022-10-19T08:22:20;102502.25;;;10.84;100.00
36748;BME280;22716;51.556;5.080;2022-10-19T08:24:49;102494.44;;;10.87;100.00
36748;BME280;22716;51.556;5.080;2022-10-19T08:27:21;102492.75;;;10.91;100.00
36748;BME280;22716;51.556;5.080;2022-10-19T08:29:50;102489.38;;;10.99;100.00
36748;BME280;22716;51.556;5.080;2022-10-19T08:32:20;102497.25;;;11.01;100.00
36748;BME280;22716;51.556;5.080;2022-10-19T08:34:48;102494.69;;;11.05;100.00
36748;BME280;22716;51.556;5.080;2022-10-19T08:37:17;102491.28;;;11.09;100.00
36748;BME280;22716;51.556;5.080;2022-10-19T08:39:46;102499.28;;;11.20;100.00
36748;BME280;22716;51.556;5.080;2022-10-19T08:42:17;102494.09;;;11.26;100.00
36748;BME280;22716;51.556;5.080;2022-10-19T08:45:25;102492.50;;;11.36;100.00
36748;BME280;22716;51.556;5.080;2022-10-19T08:48:11;102495.16;;;11.40;100.00
36748;BME280;22716;51.556;5.080;2022-10-19T08:50:50;102482.09;;;11.46;100.00
36748;BME280;22716;51.556;5.080;2022-10-19T08:53:36;102484.88;;;11.58;100.00
36748;BME280;22716;51.556;5.080;2022-10-19T08:56:17;102481.41;;;11.59;100.00
36748;BME280;22716;51.556;5.080;2022-10-19T08:58:55;102478.81;;;11.62;100.00
36748;BME280;22716;51.556;5.080;2022-10-19T09:01:39;102482.34;;;11.67;100.00
36748;BME280;22716;51.556;5.080;2022-10-19T09:04:34;102480.69;;;11.72;100.00
36748;BME280;22716;51.556;5.080;2022-10-19T09:07:23;102492.97;;;11.73;100.00
36748;BME280;22716;51.556;5.080;2022-10-19T09:09:56;102493.84;;;11.74;100.00
36748;BME280;22716;51.556;5.080;2022-10-19T09:12:36;102503.53;;;11.81;100.00
36748;BME280;22716;51.556;5.080;2022-10-19T09:15:11;102500.06;;;11.84;100.00
36748;BME280;22716;51.556;5.080;2022-10-19T09:17:44;102513.22;;;11.85;100.00
36748;BME280;22716;51.556;5.080;2022-10-19T09:20:16;102498.34;;;11.86;100.00
36748;BME280;22716;51.556;5.080;2022-10-19T09:22:50;102497.63;;;12.00;100.00
36748;BME280;22716;51.556;5.080;2022-10-19T09:25:23;102498.50;;;12.04;100.00
36748;BME280;22716;51.556;5.080;2022-10-19T09:28:02;102499.47;;;12.10;100.00
36748;BME280;22716;51.556;5.080;2022-10-19T09:30:34;102481.16;;;12.18;100.00
36748;BME280;22716;51.556;5.080;2022-10-19T09:33:17;102487.34;;;12.27;100.00
36748;BME280;22716;51.556;5.080;2022-10-19T09:35:52;102484.81;;;12.35;100.00
36748;BME280;22716;51.556;5.080;2022-10-19T09:38:27;102461.97;;;12.31;100.00
36748;BME280;22716;51.556;5.080;2022-10-19T09:40:57;102481.34;;;12.42;100.00
36748;BME280;22716;51.556;5.080;2022-10-19T09:43:30;102464.66;;;12.37;100.00
36748;BME280;22716;51.556;5.080;2022-10-19T09:46:08;102469.13;;;12.49;100.00
36748;BME280;22716;51.556;5.080;2022-10-19T09:48:48;102470.97;;;12.59;100.00
36748;BME280;22716;51.556;5.080;2022-10-19T09:51:18;102470.13;;;12.64;100.00
36748;BME280;22716;51.556;5.080;2022-10-19T09:53:54;102460.47;;;12.63;100.00
36748;BME280;22716;51.556;5.080;2022-10-19T09:56:27;102466.66;;;12.70;100.00
36748;BME280;22716;51.556;5.080;2022-10-19T09:58:57;102476.31;;;12.72;100.00
36748;BME280;22716;51.556;5.080;2022-10-19T10:01:34;102466.72;;;12.79;100.00
36748;BME280;22716;51.556;5.080;2022-10-19T10:04:08;102460.59;;;12.81;100.00
36748;BME280;22716;51.556;5.080;2022-10-19T10:06:42;102466.75;;;12.85;100.00
36748;BME280;22716;51.556;5.080;2022-10-19T10:09:14;102462.41;;;12.94;100.00
36748;BME280;22716;51.556;5.080;2022-10-19T10:11:50;102443.13;;;12.99;100.00
36748;BME280;22716;51.556;5.080;2022-10-19T10:14:26;102452.78;;;13.01;100.00
36748;BME280;22716;51.556;5.080;2022-10-19T10:17:02;102439.66;;;13.03;100.00
36748;BME280;22716;51.556;5.080;2022-10-19T10:19:35;102452.88;;;13.09;100.00
36748;BME280;22716;51.556;5.080;2022-10-19T10:22:03;102438.75;;;13.04;100.00
36748;BME280;22716;51.556;5.080;2022-10-19T10:24:33;102440.53;;;13.03;100.00
36748;BME280;22716;51.556;5.080;2022-10-19T10:27:05;102423.06;;;13.08;100.00
36748;BME280;22716;51.556;5.080;2022-10-19T10:29:36;102417.78;;;13.10;100.00
36748;BME280;22716;51.556;5.080;2022-10-19T10:32:15;102416.09;;;13.18;100.00
36748;BME280;22716;51.556;5.080;2022-10-19T10:34:58;102416.97;;;13.24;100.00
36748;BME280;22716;51.556;5.080;2022-10-19T10:37:33;102408.22;;;13.24;100.00
36748;BME280;22716;51.556;5.080;2022-10-19T10:40:20;102406.47;;;13.35;100.00
36748;BME280;22716;51.556;5.080;2022-10-19T10:42:51;102405.56;;;13.33;100.00
36748;BME280;22716;51.556;5.080;2022-10-19T10:45:24;102396.84;;;13.38;100.00
36748;BME280;22716;51.556;5.080;2022-10-19T10:47:54;102405.59;;;13.42;100.00
36748;BME280;22716;51.556;5.080;2022-10-19T10:50:36;102399.47;;;13.46;100.00
36748;BME280;22716;51.556;5.080;2022-10-19T10:53:32;102400.38;;;13.46;100.00
36748;BME280;22716;51.556;5.080;2022-10-19T10:56:18;102405.66;;;13.60;100.00
36748;BME280;22716;51.556;5.080;2022-10-19T10:58:56;102398.66;;;13.70;100.00
36748;BME280;22716;51.556;5.080;2022-10-19T11:01:30;102404.81;;;13.79;100.00
36748;BME280;22716;51.556;5.080;2022-10-19T11:04:04;102387.25;;;13.84;100.00
36748;BME280;22716;51.556;5.080;2022-10-19T11:06:43;102386.38;;;13.96;100.00
36748;BME280;22716;51.556;5.080;2022-10-19T11:09:19;102373.19;;;14.00;99.62
36748;BME280;22716;51.556;5.080;2022-10-19T11:11:53;102350.38;;;13.93;99.20
36748;BME280;22716;51.556;5.080;2022-10-19T11:14:42;102367.03;;;14.12;98.35
36748;BME280;22716;51.556;5.080;2022-10-19T11:17:20;102365.28;;;14.20;97.92
36748;BME280;22716;51.556;5.080;2022-10-19T11:19:53;102359.97;;;14.28;97.89
36748;BME280;22716;51.556;5.080;2022-10-19T11:22:28;102345.94;;;14.39;97.20
36748;BME280;22716;51.556;5.080;2022-10-19T11:25:18;102345.91;;;14.48;96.77
36748;BME280;22716;51.556;5.080;2022-10-19T11:28:03;102337.09;;;14.58;96.67
36748;BME280;22716;51.556;5.080;2022-10-19T11:31:05;102326.53;;;14.68;95.85
36748;BME280;22716;51.556;5.080;2022-10-19T11:33:50;102323.81;;;14.81;95.81
36748;BME280;22716;51.556;5.080;2022-10-19T11:36:53;102304.44;;;14.85;94.75
36748;BME280;22716;51.556;5.080;2022-10-19T11:39:39;102311.41;;;14.98;94.27
36748;BME280;22716;51.556;5.080;2022-10-19T11:42:21;102290.31;;;15.00;93.02
36748;BME280;22716;51.556;5.080;2022-10-19T11:45:03;102293.75;;;15.08;92.27
36748;BME280;22716;51.556;5.080;2022-10-19T11:47:59;102283.13;;;15.19;91.57
36748;BME280;22716;51.556;5.080;2022-10-19T11:50:56;102274.25;;;15.27;91.64
36748;BME280;22716;51.556;5.080;2022-10-19T11:53:38;102279.53;;;15.32;90.98
36748;BME280;22716;51.556;5.080;2022-10-19T11:56:18;102275.06;;;15.37;90.15
36748;BME280;22716;51.556;5.080;2022-10-19T11:59:00;102262.69;;;15.42;89.53
36748;BME280;22716;51.556;5.080;2022-10-19T12:01:47;102270.59;;;15.45;88.91
36748;BME280;22716;51.556;5.080;2022-10-19T12:04:34;102254.81;;;15.40;89.14
36748;BME280;22716;51.556;5.080;2022-10-19T12:07:27;102214.50;;;15.15;89.06
36748;BME280;22716;51.556;5.080;2022-10-19T12:10:06;102240.03;;;15.15;89.57
36748;BME280;22716;51.556;5.080;2022-10-19T12:12:45;102244.53;;;15.02;90.28
36748;BME280;22716;51.556;5.080;2022-10-19T12:15:21;102246.34;;;14.93;90.36
36748;BME280;22716;51.556;5.080;2022-10-19T12:17:53;102234.94;;;14.88;90.26
36748;BME280;22716;51.556;5.080;2022-10-19T12:20:29;102231.44;;;14.83;90.23
36748;BME280;22716;51.556;5.080;2022-10-19T12:23:12;102227.06;;;14.80;90.41
36748;BME280;22716;51.556;5.080;2022-10-19T12:25:50;102240.28;;;14.76;91.51
36748;BME280;22716;51.556;5.080;2022-10-19T12:28:30;102248.25;;;14.62;90.53
36748;BME280;22716;51.556;5.080;2022-10-19T12:31:01;102243.88;;;14.59;91.12
36748;BME280;22716;51.556;5.080;2022-10-19T12:33:41;102225.47;;;14.52;91.30
36748;BME280;22716;51.556;5.080;2022-10-19T12:36:30;102229.78;;;14.67;91.31
36748;BME280;22716;51.556;5.080;2022-10-19T12:39:14;102231.50;;;14.74;91.70
36748;BME280;22716;51.556;5.080;2022-10-19T12:41:53;102230.63;;;14.76;91.02
36748;BME280;22716;51.556;5.080;2022-10-19T12:45:01;102223.59;;;14.75;90.77
36748;BME280;22716;51.556;5.080;2022-10-19T12:47:39;102216.56;;;14.68;90.94
36748;BME280;22716;51.556;5.080;2022-10-19T12:50:08;102206.09;;;14.56;91.50
36748;BME280;22716;51.556;5.080;2022-10-19T12:52:47;102201.66;;;14.63;91.74
36748;BME280;22716;51.556;5.080;2022-10-19T12:55:27;102206.91;;;14.66;92.19
36748;BME280;22716;51.556;5.080;2022-10-19T12:58:04;102184.13;;;14.54;92.84
36748;BME280;22716;51.556;5.080;2022-10-19T13:00:37;102197.28;;;14.65;92.88
36748;BME280;22716;51.556;5.080;2022-10-19T13:03:13;102179.69;;;14.59;92.67
36748;BME280;22716;51.556;5.080;2022-10-19T13:06:06;102188.44;;;14.69;92.62
36748;BME280;22716;51.556;5.080;2022-10-19T13:08:41;102184.91;;;14.68;93.13
36748;BME280;22716;51.556;5.080;2022-10-19T13:11:14;102172.63;;;14.70;92.83
36748;BME280;22716;51.556;5.080;2022-10-19T13:14:46;102164.69;;;14.72;92.23
36748;BME280;22716;51.556;5.080;2022-10-19T13:17:03;102168.16;;;14.74;91.97
36748;BME280;22716;51.556;5.080;2022-10-19T13:19:33;102158.50;;;14.74;91.77
36748;BME280;22716;51.556;5.080;2022-10-19T13:22:27;102145.25;;;14.80;91.17
36748;BME280;22716;51.556;5.080;2022-10-19T13:25:24;102142.66;;;14.79;90.78
36748;BME280;22716;51.556;5.080;2022-10-19T13:31:03;102134.69;;;14.88;91.20
36748;BME280;22716;51.556;5.080;2022-10-19T13:33:48;102136.38;;;14.92;90.96